createdAt,value
2019-01-25T00:00:23.900Z,20.50
2019-01-25T00:02:55.901Z,20.40
2019-01-25T00:05:26.314Z,20.50
2019-01-25T00:07:56.820Z,20.40
2019-01-25T00:10:27.218Z,20.40
2019-01-25T00:12:57.622Z,20.40
2019-01-25T00:15:28.094Z,20.40
2019-01-25T00:17:58.414Z,20.40
2019-01-25T00:20:28.839Z,20.40
2019-01-25T00:22:59.240Z,20.40
2019-01-25T00:25:29.675Z,20.40
2019-01-25T00:27:59.984Z,20.40
2019-01-25T00:30:30.868Z,20.40
2019-01-25T00:33:01.200Z,20.40
2019-01-25T00:35:31.496Z,20.40
2019-01-25T00:38:01.949Z,20.40
2019-01-25T00:40:32.344Z,20.40
2019-01-25T00:43:02.726Z,20.40
2019-01-25T00:45:33.023Z,20.40
2019-01-25T00:48:03.310Z,20.40
2019-01-25T00:50:33.608Z,20.40
2019-01-25T00:53:03.994Z,20.40
2019-01-25T00:55:34.330Z,20.40
2019-01-25T00:58:04.582Z,20.40
2019-01-25T01:00:34.948Z,20.40
2019-01-25T01:03:06.114Z,20.40
2019-01-25T01:05:36.398Z,20.40
2019-01-25T01:08:06.789Z,20.40
2019-01-25T01:10:37.095Z,20.40
2019-01-25T01:13:07.478Z,20.40
2019-01-25T01:15:37.825Z,20.40
2019-01-25T01:18:08.289Z,20.40
2019-01-25T01:20:38.703Z,20.40
2019-01-25T01:23:09.610Z,20.40
2019-01-25T01:25:40.052Z,20.40
2019-01-25T01:28:10.480Z,20.40
2019-01-25T01:30:40.815Z,20.40
2019-01-25T01:33:11.276Z,20.40
2019-01-25T01:35:41.529Z,20.40
2019-01-25T01:38:11.887Z,20.40
2019-01-25T01:40:42.202Z,20.40
2019-01-25T01:43:12.628Z,20.40
2019-01-25T01:45:42.998Z,20.40
2019-01-25T01:48:13.425Z,20.40
2019-01-25T01:50:43.720Z,20.40
2019-01-25T01:53:14.178Z,20.40
2019-01-25T01:55:44.576Z,20.40
2019-01-25T01:58:14.900Z,20.40
2019-01-25T02:00:45.323Z,20.40
2019-01-25T02:03:15.557Z,20.40
2019-01-25T02:05:47.018Z,20.40
2019-01-25T02:08:17.384Z,20.40
2019-01-25T02:10:47.900Z,20.40
2019-01-25T02:13:18.277Z,20.40
2019-01-25T02:15:48.651Z,20.40
2019-01-25T02:18:18.929Z,20.40
2019-01-25T02:20:49.289Z,20.40
2019-01-25T02:23:19.555Z,20.40
2019-01-25T02:25:49.875Z,20.40
2019-01-25T02:28:20.139Z,20.40
2019-01-25T02:30:50.500Z,20.40
2019-01-25T02:33:20.883Z,20.40
2019-01-25T02:35:51.293Z,20.40
2019-01-25T02:38:21.777Z,20.40
2019-01-25T02:40:52.272Z,20.40
2019-01-25T02:43:22.680Z,20.40
2019-01-25T02:45:53.035Z,20.40
2019-01-25T02:48:23.420Z,20.40
2019-01-25T02:50:53.770Z,20.40
2019-01-25T02:53:24.197Z,20.40
2019-01-25T02:55:54.500Z,20.40
2019-01-25T02:58:24.916Z,20.40
2019-01-25T03:00:55.094Z,20.40
2019-01-25T03:03:25.421Z,20.40
2019-01-25T03:05:55.738Z,20.40
2019-01-25T03:08:26.062Z,20.40
2019-01-25T03:10:56.544Z,20.40
2019-01-25T03:13:26.879Z,20.40
2019-01-25T03:15:57.190Z,20.40
2019-01-25T03:18:27.604Z,20.40
2019-01-25T03:20:57.893Z,20.40
2019-01-25T03:23:28.195Z,20.40
2019-01-25T03:25:58.444Z,20.40
2019-01-25T03:28:28.860Z,20.40
2019-01-25T03:30:59.226Z,20.40
2019-01-25T03:33:29.637Z,20.40
2019-01-25T03:35:59.903Z,20.40
2019-01-25T03:38:30.201Z,20.40
2019-01-25T03:41:00.486Z,20.40
2019-01-25T03:43:30.897Z,20.40
2019-01-25T03:46:01.267Z,20.40
2019-01-25T03:48:31.634Z,20.40
2019-01-25T03:51:02.018Z,20.40
2019-01-25T03:53:32.644Z,20.40
2019-01-25T03:56:03.106Z,20.40
2019-01-25T03:58:33.481Z,20.40
2019-01-25T04:01:03.887Z,20.40
2019-01-25T04:03:34.125Z,20.40
2019-01-25T04:06:04.614Z,20.40
2019-01-25T04:08:34.874Z,20.40
2019-01-25T04:11:05.306Z,20.40
2019-01-25T04:13:35.660Z,20.40
2019-01-25T04:16:05.955Z,20.40
2019-01-25T04:18:36.372Z,20.40
2019-01-25T04:21:06.691Z,20.40
2019-01-25T04:23:37.233Z,20.40
2019-01-25T04:26:07.593Z,20.40
2019-01-25T04:28:37.995Z,20.40
2019-01-25T04:31:08.333Z,20.40
2019-01-25T04:33:38.622Z,20.40
2019-01-25T04:36:09.007Z,20.40
2019-01-25T04:38:39.486Z,20.40
2019-01-25T04:41:11.756Z,20.40
2019-01-25T04:43:42.001Z,20.40
2019-01-25T04:46:12.237Z,20.40
2019-01-25T04:48:42.719Z,20.40
2019-01-25T04:51:13.160Z,20.40
2019-01-25T04:53:43.459Z,20.40
2019-01-25T04:56:13.836Z,20.40
2019-01-25T04:58:44.166Z,20.40
2019-01-25T05:01:14.616Z,20.40
2019-01-25T05:03:44.996Z,20.40
2019-01-25T05:06:18.034Z,20.40
2019-01-25T05:08:48.341Z,20.40
2019-01-25T05:11:20.363Z,20.40
2019-01-25T05:13:50.988Z,20.40
2019-01-25T05:16:21.405Z,20.40
2019-01-25T05:18:51.786Z,20.40
2019-01-25T05:21:25.875Z,20.40
2019-01-25T05:23:56.256Z,20.40
2019-01-25T05:26:26.603Z,20.40
2019-01-25T05:28:57.035Z,20.40
2019-01-25T05:31:29.255Z,20.40
2019-01-25T05:33:59.627Z,20.40
2019-01-25T05:36:30.042Z,20.40
2019-01-25T05:39:00.420Z,20.40
2019-01-25T05:41:30.955Z,20.40
2019-01-25T05:44:01.310Z,20.40
2019-01-25T05:46:31.741Z,20.40
2019-01-25T05:49:02.103Z,20.40
2019-01-25T05:51:33.756Z,20.40
2019-01-25T05:54:04.296Z,20.40
2019-01-25T05:56:34.607Z,20.40
2019-01-25T05:59:05.034Z,20.40
2019-01-25T06:01:36.964Z,20.40
2019-01-25T06:04:07.530Z,20.40
2019-01-25T06:06:38.062Z,20.40
2019-01-25T06:09:08.852Z,20.40
2019-01-25T06:11:40.245Z,20.40
2019-01-25T06:14:11.208Z,20.40
2019-01-25T06:16:42.736Z,20.40
2019-01-25T06:19:13.107Z,20.40
2019-01-25T06:21:43.411Z,20.40
2019-01-25T06:24:13.760Z,20.40
2019-01-25T06:26:45.951Z,20.40
2019-01-25T06:29:16.375Z,20.40
2019-01-25T06:31:46.763Z,20.40
2019-01-25T06:34:17.164Z,20.50
2019-01-25T06:36:47.437Z,20.40
2019-01-25T06:39:17.830Z,20.50
2019-01-25T06:41:48.180Z,20.50
2019-01-25T06:44:18.542Z,20.50
2019-01-25T06:46:48.740Z,20.50
2019-01-25T06:49:20.101Z,20.50
2019-01-25T06:51:50.482Z,20.50
2019-01-25T06:54:20.747Z,20.50
2019-01-25T06:56:50.973Z,20.50
2019-01-25T06:59:27.240Z,20.60
2019-01-25T07:02:07.727Z,20.60
2019-01-25T07:04:38.078Z,20.60
2019-01-25T07:07:16.388Z,20.60
2019-01-25T07:09:49.692Z,20.60
2019-01-25T07:12:20.055Z,20.60
2019-01-25T07:14:51.307Z,20.60
2019-01-25T07:17:27.242Z,20.60
2019-01-25T07:19:58.234Z,20.60
2019-01-25T07:22:30.275Z,20.60
2019-01-25T07:25:00.660Z,20.70
2019-01-25T07:27:32.145Z,20.70
2019-01-25T07:32:48.585Z,20.70
2019-01-25T07:35:22.241Z,20.80
2019-01-25T07:49:25.269Z,21.00
2019-01-25T07:58:18.495Z,21.10
2019-01-25T08:03:52.470Z,21.30
2019-01-25T08:06:26.822Z,21.30
2019-01-25T08:09:02.510Z,21.30
2019-01-25T08:14:26.291Z,21.40
2019-01-25T08:17:17.519Z,21.40
2019-01-25T08:19:55.248Z,21.40
2019-01-25T08:22:43.422Z,21.40
2019-01-25T08:25:13.595Z,21.40
2019-01-25T08:27:50.659Z,21.40
2019-01-25T08:30:25.880Z,21.40
2019-01-25T08:32:56.750Z,21.40
2019-01-25T08:35:31.720Z,21.40
2019-01-25T08:38:02.522Z,21.40
2019-01-25T08:40:33.248Z,21.40
2019-01-25T08:43:03.751Z,21.40
2019-01-25T08:45:36.205Z,21.40
2019-01-25T08:48:07.292Z,21.40
2019-01-25T08:50:39.311Z,21.40
2019-01-25T08:53:09.912Z,21.30
2019-01-25T08:55:40.934Z,21.30
2019-01-25T08:58:11.706Z,21.30
2019-01-25T09:00:42.402Z,21.30
2019-01-25T09:03:12.880Z,21.50
2019-01-25T09:05:43.767Z,21.30
2019-01-25T09:08:14.349Z,21.30
2019-01-25T09:10:44.854Z,21.20
2019-01-25T09:13:19.923Z,21.30
2019-01-25T09:18:46.379Z,21.10
2019-01-25T09:24:25.396Z,21.30
2019-01-25T09:26:53.134Z,21.30
2019-01-25T09:29:25.705Z,21.40
2019-01-25T09:36:13.787Z,21.40
2019-01-25T09:38:47.383Z,21.30
2019-01-25T09:41:17.865Z,21.10
2019-01-25T09:43:48.232Z,20.80
2019-01-25T09:46:18.987Z,20.70
2019-01-25T09:48:53.563Z,20.70
2019-01-25T09:51:24.120Z,20.60
2019-01-25T09:53:54.880Z,20.50
2019-01-25T09:56:27.766Z,20.40
2019-01-25T09:59:40.558Z,20.30
2019-01-25T10:02:45.534Z,20.30
2019-01-25T10:05:25.280Z,20.30
2019-01-25T10:07:58.467Z,20.30
2019-01-25T10:10:29.222Z,20.30
2019-01-25T10:13:03.436Z,20.30
2019-01-25T10:15:46.011Z,20.20
2019-01-25T10:18:16.556Z,20.10
2019-01-25T10:20:47.987Z,20.10
2019-01-25T10:26:23.370Z,20.20
2019-01-25T10:31:40.128Z,20.40
2019-01-25T10:34:10.468Z,20.50
2019-01-25T10:36:44.603Z,20.60
2019-01-25T10:39:16.676Z,20.70
2019-01-25T10:41:47.480Z,20.80
2019-01-25T10:44:23.371Z,20.80
2019-01-25T10:46:57.785Z,20.90
2019-01-25T10:49:33.122Z,21.00
2019-01-25T10:52:03.574Z,21.10
2019-01-25T11:17:12.902Z,20.90
2019-01-25T11:21:03.725Z,20.90
2019-01-25T11:22:45.199Z,21.00
2019-01-25T11:25:51.644Z,21.10
2019-01-25T11:28:27.488Z,21.10
2019-01-25T11:31:00.038Z,21.20
2019-01-25T11:33:34.255Z,21.20
2019-01-25T11:36:11.331Z,21.30
2019-01-25T11:38:47.057Z,21.40
2019-01-25T11:41:20.395Z,21.40
2019-01-25T11:43:52.278Z,21.50
2019-01-25T11:49:05.723Z,21.60
2019-01-25T11:51:39.571Z,21.60
2019-01-25T11:54:10.320Z,21.60
2019-01-25T11:57:53.505Z,21.60
2019-01-25T11:59:54.506Z,21.70
2019-01-25T12:02:38.821Z,21.80
